createdAt,value
2023-05-04T00:01:18.610Z,8.07
2023-05-04T00:03:50.846Z,7.82
2023-05-04T00:06:18.316Z,8.63
2023-05-04T00:08:45.627Z,9.20
2023-05-04T00:11:12.970Z,10.68
2023-05-04T00:13:42.452Z,9.35
2023-05-04T00:16:10.998Z,8.52
2023-05-04T00:18:39.234Z,11.32
2023-05-04T00:21:09.412Z,8.70
2023-05-04T00:23:41.279Z,8.43
2023-05-04T00:26:10.738Z,10.73
2023-05-04T00:28:42.718Z,10.25
2023-05-04T00:31:10.064Z,8.82
2023-05-04T00:33:39.525Z,9.05
2023-05-04T00:36:07.225Z,8.98
2023-05-04T00:38:49.088Z,9.05
2023-05-04T00:41:17.581Z,8.07
2023-05-04T00:43:45.621Z,9.95
2023-05-04T00:46:16.627Z,8.93
2023-05-04T00:48:49.448Z,9.88
2023-05-04T00:51:19.287Z,8.57
2023-05-04T00:53:47.754Z,8.60
2023-05-04T00:56:16.544Z,9.73
2023-05-04T00:58:43.924Z,9.48
2023-05-04T01:01:11.707Z,8.80
2023-05-04T01:03:39.102Z,7.75
2023-05-04T01:06:18.486Z,8.75
2023-05-04T01:09:11.253Z,8.55
2023-05-04T01:11:53.905Z,10.05
2023-05-04T01:14:22.319Z,7.68
2023-05-04T01:16:54.965Z,11.32
2023-05-04T01:19:25.070Z,8.32
2023-05-04T01:21:54.694Z,8.10
2023-05-04T01:24:22.208Z,9.20
2023-05-04T01:26:55.418Z,8.23
2023-05-04T01:29:27.613Z,9.10
2023-05-04T01:31:58.556Z,10.52
2023-05-04T01:34:28.430Z,10.13
2023-05-04T01:36:56.602Z,8.52
2023-05-04T01:39:26.409Z,8.23
2023-05-04T01:41:53.639Z,8.38
2023-05-04T01:44:20.958Z,8.18
2023-05-04T01:46:50.595Z,9.52
2023-05-04T01:49:22.858Z,11.18
2023-05-04T01:51:50.487Z,10.05
2023-05-04T01:54:17.750Z,9.77
2023-05-04T01:56:45.066Z,8.68
2023-05-04T01:59:12.370Z,9.57
2023-05-04T02:01:42.547Z,9.07
2023-05-04T02:04:10.009Z,8.43
2023-05-04T02:06:37.375Z,9.68
2023-05-04T02:09:04.672Z,9.35
2023-05-04T02:11:34.295Z,8.18
2023-05-04T02:14:01.547Z,8.27
2023-05-04T02:16:31.684Z,8.10
2023-05-04T02:19:01.131Z,9.00
2023-05-04T02:21:29.531Z,7.78
2023-05-04T02:23:59.421Z,11.07
2023-05-04T02:26:29.170Z,7.88
2023-05-04T02:28:56.628Z,9.00
2023-05-04T02:31:23.909Z,9.13
2023-05-04T02:33:53.809Z,7.63
2023-05-04T02:36:23.296Z,11.00
2023-05-04T02:38:51.343Z,9.05
2023-05-04T02:41:21.156Z,8.23
2023-05-04T02:43:48.448Z,8.55
2023-05-04T02:46:19.904Z,8.98
2023-05-04T02:51:18.246Z,8.07
2023-05-04T02:53:45.571Z,7.35
2023-05-04T02:56:15.188Z,9.52
2023-05-04T02:58:45.078Z,8.77
2023-05-04T03:01:12.401Z,8.05
2023-05-04T03:03:42.155Z,8.93
2023-05-04T03:06:09.428Z,7.55
2023-05-04T03:08:36.659Z,10.52
2023-05-04T03:11:03.937Z,9.13
2023-05-04T03:13:31.349Z,8.10
2023-05-04T03:16:01.167Z,8.75
2023-05-04T03:21:15.894Z,6.90
2023-05-04T03:23:43.190Z,7.78
2023-05-04T03:26:10.578Z,7.28
2023-05-04T03:28:38.058Z,8.93
2023-05-04T03:31:05.340Z,8.02
2023-05-04T03:33:37.048Z,9.73
2023-05-04T03:36:04.611Z,10.63
2023-05-04T03:38:31.981Z,10.95
2023-05-04T03:40:59.251Z,9.43
2023-05-04T03:43:26.740Z,8.25
2023-05-04T03:45:56.464Z,9.93
2023-05-04T03:48:26.238Z,8.95
2023-05-04T03:50:56.687Z,8.10
2023-05-04T03:53:24.032Z,7.53
2023-05-04T03:55:55.803Z,9.25
2023-05-04T03:58:27.950Z,9.20
2023-05-04T04:00:57.404Z,9.77
2023-05-04T04:03:24.726Z,10.75
2023-05-04T04:05:54.936Z,8.90
2023-05-04T04:08:22.438Z,7.68
2023-05-04T04:10:49.695Z,8.73
2023-05-04T04:13:17.021Z,8.30
2023-05-04T04:15:45.700Z,9.02
2023-05-04T04:18:13.243Z,9.77
2023-05-04T04:20:40.943Z,10.73
2023-05-04T04:23:10.403Z,7.10
2023-05-04T04:25:38.089Z,9.02
2023-05-04T04:28:05.423Z,8.85
2023-05-04T04:30:32.728Z,7.53
2023-05-04T04:33:00.059Z,9.82
2023-05-04T04:35:27.523Z,10.38
2023-05-04T04:37:54.788Z,8.25
2023-05-04T04:40:22.665Z,7.05
2023-05-04T04:42:50.001Z,8.10
2023-05-04T04:45:20.364Z,11.32
2023-05-04T04:47:47.909Z,10.95
2023-05-04T04:50:15.264Z,8.27
2023-05-04T04:52:42.660Z,9.02
2023-05-04T04:55:10.197Z,10.15
2023-05-04T04:57:37.431Z,9.27
2023-05-04T05:00:10.061Z,8.02
2023-05-04T05:02:40.058Z,10.65
2023-05-04T05:05:08.201Z,9.57
2023-05-04T05:07:37.793Z,10.02
2023-05-04T05:10:05.751Z,9.90
2023-05-04T05:12:33.307Z,10.15
2023-05-04T05:15:04.493Z,10.77
2023-05-04T05:17:32.206Z,12.57
2023-05-04T05:19:59.476Z,12.82
2023-05-04T05:22:29.386Z,10.48
2023-05-04T05:24:56.829Z,11.10
2023-05-04T05:27:24.123Z,11.07
2023-05-04T05:29:51.388Z,11.27
2023-05-04T05:32:18.737Z,13.98
2023-05-04T05:34:45.997Z,11.05
2023-05-04T05:37:13.253Z,13.45
2023-05-04T05:39:40.604Z,13.20
2023-05-04T05:42:08.354Z,15.35
2023-05-04T05:44:37.862Z,12.45
2023-05-04T05:47:05.795Z,12.95
2023-05-04T05:49:33.075Z,10.32
2023-05-04T05:52:00.421Z,13.88
2023-05-04T05:54:30.436Z,12.40
2023-05-04T05:56:58.203Z,11.65
2023-05-04T05:59:25.560Z,13.45
2023-05-04T06:01:52.949Z,12.70
2023-05-04T06:04:20.788Z,11.30
2023-05-04T06:06:48.356Z,12.07
2023-05-04T06:09:15.610Z,10.65
2023-05-04T06:11:43.007Z,12.07
2023-05-04T06:14:12.535Z,11.93
2023-05-04T06:16:39.968Z,11.15
2023-05-04T06:19:11.752Z,12.20
2023-05-04T06:24:06.335Z,12.32
2023-05-04T06:26:33.754Z,10.43
2023-05-04T06:29:01.053Z,13.27
2023-05-04T06:31:30.731Z,13.23
2023-05-04T06:33:58.019Z,11.38
2023-05-04T06:36:27.793Z,11.30
2023-05-04T06:38:58.313Z,10.80
2023-05-04T06:41:25.945Z,10.60
2023-05-04T06:43:53.410Z,10.95
2023-05-04T06:46:22.868Z,11.05
2023-05-04T06:48:50.169Z,13.82
2023-05-04T06:51:17.403Z,10.80
2023-05-04T06:53:47.278Z,11.70
2023-05-04T06:56:14.541Z,11.38
2023-05-04T06:58:41.781Z,14.23
2023-05-04T07:01:09.329Z,13.25
2023-05-04T07:03:43.699Z,14.30
2023-05-04T07:06:13.859Z,14.88
2023-05-04T07:08:43.447Z,10.77
2023-05-04T07:11:14.056Z,11.18
2023-05-04T07:13:41.334Z,13.40
2023-05-04T07:16:09.247Z,11.13
2023-05-04T07:18:38.891Z,10.13
2023-05-04T07:21:27.009Z,11.88
2023-05-04T07:23:56.346Z,12.70
2023-05-04T07:26:25.993Z,11.30
2023-05-04T07:28:55.894Z,10.15
2023-05-04T07:31:23.391Z,11.52
2023-05-04T07:33:51.760Z,12.35
2023-05-04T07:36:19.072Z,11.40
2023-05-04T07:38:46.938Z,12.90
2023-05-04T07:41:14.232Z,13.02
2023-05-04T07:43:43.676Z,12.05
2023-05-04T07:46:11.185Z,10.45
2023-05-04T07:48:41.005Z,14.15
2023-05-04T07:51:16.286Z,11.80
2023-05-04T07:53:46.158Z,11.07
2023-05-04T07:56:13.977Z,10.48
2023-05-04T07:58:41.586Z,13.48
2023-05-04T08:01:08.892Z,10.60
2023-05-04T08:03:38.644Z,11.32
2023-05-04T08:06:07.699Z,10.82
2023-05-04T08:08:34.982Z,12.45
2023-05-04T08:11:15.837Z,10.98
2023-05-04T08:13:50.745Z,10.52
2023-05-04T08:16:18.187Z,12.05
2023-05-04T08:18:45.512Z,10.43
2023-05-04T08:21:15.277Z,10.60
2023-05-04T08:23:42.713Z,13.07
2023-05-04T08:26:09.994Z,12.52
2023-05-04T08:28:39.040Z,11.23
2023-05-04T08:31:06.782Z,10.55
2023-05-04T08:33:34.589Z,9.95
2023-05-04T08:36:03.422Z,11.23
2023-05-04T08:38:33.527Z,9.88
2023-05-04T08:41:07.319Z,9.93
2023-05-04T08:43:37.545Z,10.18
2023-05-04T08:46:09.797Z,14.65
2023-05-04T08:48:37.596Z,10.05
2023-05-04T08:51:07.202Z,11.07
2023-05-04T08:53:37.731Z,11.75
2023-05-04T08:56:11.488Z,10.65
2023-05-04T08:58:48.005Z,11.10
2023-05-04T09:01:17.132Z,9.18
2023-05-04T09:03:50.171Z,9.93
2023-05-04T09:06:18.065Z,11.32
2023-05-04T09:08:46.520Z,10.15
2023-05-04T09:11:14.083Z,10.02
2023-05-04T09:13:43.817Z,8.60
2023-05-04T09:16:12.244Z,12.90
2023-05-04T09:18:45.119Z,10.30
2023-05-04T09:21:12.614Z,9.07
2023-05-04T09:23:47.355Z,10.38
2023-05-04T09:26:14.949Z,8.77
2023-05-04T09:28:45.180Z,8.70
2023-05-04T09:31:17.561Z,9.10
2023-05-04T09:33:44.868Z,11.82
2023-05-04T09:36:21.026Z,9.80
2023-05-04T09:38:48.908Z,8.98
2023-05-04T09:41:16.395Z,9.70
2023-05-04T09:43:46.306Z,9.32
2023-05-04T09:46:18.465Z,10.07
2023-05-04T09:48:53.833Z,9.18
2023-05-04T09:51:27.405Z,10.00
2023-05-04T09:54:04.145Z,8.05
2023-05-04T09:57:11.721Z,10.05
2023-05-04T09:59:39.712Z,7.15
2023-05-04T10:02:22.028Z,7.13
2023-05-04T10:04:51.972Z,7.63
2023-05-04T10:07:22.471Z,6.43
2023-05-04T10:09:51.247Z,7.80
2023-05-04T10:12:21.138Z,7.43
2023-05-04T10:14:50.754Z,6.90
2023-05-04T10:17:26.761Z,7.35
2023-05-04T10:20:31.460Z,7.18
2023-05-04T10:23:18.874Z,7.28
2023-05-04T10:26:07.975Z,10.23
2023-05-04T10:28:57.997Z,6.60
2023-05-04T10:31:25.851Z,5.65
2023-05-04T10:33:54.033Z,7.20
2023-05-04T10:36:23.596Z,5.45
2023-05-04T10:38:50.898Z,7.13
2023-05-04T10:41:20.295Z,6.40
2023-05-04T10:43:53.517Z,7.68
2023-05-04T10:46:22.974Z,5.35
2023-05-04T10:48:51.552Z,7.00
2023-05-04T10:51:38.748Z,6.47
2023-05-04T10:54:18.858Z,8.32
2023-05-04T10:56:46.156Z,8.77
2023-05-04T10:59:14.974Z,12.50
2023-05-04T11:01:45.837Z,5.50
2023-05-04T11:04:24.007Z,5.97
2023-05-04T11:07:02.396Z,7.30
2023-05-04T11:09:37.784Z,5.55
2023-05-04T11:12:06.559Z,8.27
2023-05-04T11:14:42.620Z,5.57
2023-05-04T11:19:50.894Z,5.32
2023-05-04T11:22:18.810Z,5.78
2023-05-04T11:24:50.027Z,5.30
2023-05-04T11:27:32.855Z,4.90
2023-05-04T11:30:06.758Z,4.93
2023-05-04T11:32:49.679Z,5.60
2023-05-04T11:35:19.017Z,16.25
2023-05-04T11:37:50.664Z,6.28
2023-05-04T11:40:22.927Z,6.00
2023-05-04T11:42:52.846Z,4.03
2023-05-04T11:45:26.527Z,5.47
2023-05-04T11:47:56.567Z,5.43
2023-05-04T11:50:25.346Z,4.43
2023-05-04T11:53:03.741Z,4.05
2023-05-04T11:55:34.907Z,3.78
2023-05-04T11:58:08.463Z,3.00
2023-05-04T12:00:42.068Z,3.53
2023-05-04T12:03:13.443Z,3.45
2023-05-04T12:08:31.961Z,4.97
2023-05-04T12:11:14.902Z,2.80
2023-05-04T12:13:43.854Z,4.60
2023-05-04T12:16:19.002Z,4.63
2023-05-04T12:18:47.753Z,5.80
2023-05-04T12:21:19.969Z,3.25
2023-05-04T12:23:49.450Z,3.25
2023-05-04T12:26:19.898Z,4.63
2023-05-04T12:28:47.683Z,3.42
2023-05-04T12:31:15.107Z,3.88
2023-05-04T12:33:45.521Z,3.55
2023-05-04T12:36:12.944Z,6.05
2023-05-04T12:38:40.263Z,4.55
2023-05-04T12:41:10.732Z,2.33
2023-05-04T12:43:38.456Z,6.30
2023-05-04T12:46:05.960Z,2.55
2023-05-04T12:48:37.904Z,4.28
2023-05-04T12:51:05.522Z,4.22
2023-05-04T12:53:32.948Z,1.92
2023-05-04T12:56:05.483Z,2.63
2023-05-04T12:58:32.783Z,2.30
2023-05-04T13:01:00.190Z,1.17
2023-05-04T13:03:29.841Z,2.42
2023-05-04T13:05:58.049Z,2.75
2023-05-04T13:08:25.927Z,2.17
2023-05-04T13:10:53.694Z,3.30
2023-05-04T13:13:24.373Z,3.10
2023-05-04T13:15:54.682Z,1.48
2023-05-04T13:18:27.413Z,2.03
2023-05-04T13:20:56.572Z,2.60
2023-05-04T13:23:26.500Z,2.42
2023-05-04T13:25:56.492Z,2.85
2023-05-04T13:28:25.978Z,2.30
2023-05-04T13:30:55.836Z,1.70
2023-05-04T13:33:29.638Z,2.85
2023-05-04T13:35:58.749Z,2.17
2023-05-04T13:38:26.292Z,1.80
2023-05-04T13:40:54.523Z,2.70
2023-05-04T13:43:24.940Z,4.15
2023-05-04T13:45:52.387Z,3.47
2023-05-04T13:48:19.750Z,2.17
2023-05-04T13:50:49.479Z,3.95
2023-05-04T13:53:16.916Z,3.88
2023-05-04T13:55:44.477Z,2.60
2023-05-04T13:58:11.760Z,3.45
2023-05-04T14:00:39.121Z,2.85
2023-05-04T14:03:08.852Z,4.07
2023-05-04T14:05:36.478Z,1.63
2023-05-04T14:08:06.303Z,3.35
2023-05-04T14:10:37.250Z,4.07
2023-05-04T14:13:04.884Z,13.50
2023-05-04T14:15:34.575Z,35.00
2023-05-04T14:18:01.985Z,37.42
2023-05-04T14:20:29.264Z,17.20
2023-05-04T14:22:56.588Z,10.70
2023-05-04T14:25:26.773Z,6.05
2023-05-04T14:27:56.638Z,3.72
2023-05-04T14:30:24.071Z,3.60
2023-05-04T14:32:54.385Z,3.53
2023-05-04T14:35:21.845Z,3.13
2023-05-04T14:37:51.827Z,2.28
2023-05-04T14:40:21.295Z,2.92
2023-05-04T14:42:48.613Z,2.28
2023-05-04T14:45:18.469Z,2.22
2023-05-04T14:47:45.853Z,2.47
2023-05-04T14:50:13.751Z,4.50
2023-05-04T14:52:43.253Z,3.00
2023-05-04T14:55:13.166Z,1.83
2023-05-04T14:57:41.219Z,3.10
2023-05-04T15:00:09.565Z,3.17
2023-05-04T15:02:39.588Z,3.17
2023-05-04T15:05:12.440Z,4.50
2023-05-04T15:07:42.260Z,2.13
2023-05-04T15:10:10.500Z,1.90
2023-05-04T15:12:38.152Z,1.85
2023-05-04T15:15:08.469Z,1.65
2023-05-04T15:17:38.511Z,3.03
2023-05-04T15:20:07.398Z,2.85
2023-05-04T15:22:37.571Z,3.05
2023-05-04T15:25:05.696Z,2.85
2023-05-04T15:27:35.141Z,2.55
2023-05-04T15:30:02.441Z,4.90
2023-05-04T15:32:32.270Z,2.50
2023-05-04T15:35:05.477Z,2.65
2023-05-04T15:37:36.035Z,2.17
2023-05-04T15:40:04.752Z,1.65
2023-05-04T15:42:34.562Z,2.10
2023-05-04T15:45:04.666Z,2.60
2023-05-04T15:47:32.139Z,2.38
2023-05-04T15:49:59.590Z,2.75
2023-05-04T15:52:29.396Z,3.05
2023-05-04T15:55:00.713Z,2.20
2023-05-04T15:57:33.782Z,2.22
2023-05-04T16:00:02.574Z,2.47
2023-05-04T16:02:31.289Z,3.22
2023-05-04T16:04:58.876Z,3.80
2023-05-04T16:07:28.360Z,2.55
2023-05-04T16:09:55.678Z,2.28
2023-05-04T16:12:23.156Z,3.22
2023-05-04T16:14:50.935Z,3.90
2023-05-04T16:17:18.198Z,2.72
2023-05-04T16:19:47.646Z,2.35
2023-05-04T16:22:17.393Z,2.53
2023-05-04T16:24:44.625Z,2.72
2023-05-04T16:27:14.396Z,1.90
2023-05-04T16:29:43.756Z,1.50
2023-05-04T16:32:13.448Z,2.00
2023-05-04T16:34:45.820Z,1.33
2023-05-04T16:37:13.365Z,3.28
2023-05-04T16:39:42.869Z,1.55
2023-05-04T16:42:10.158Z,2.25
2023-05-04T16:44:39.737Z,1.50
2023-05-04T16:47:07.200Z,3.67
2023-05-04T16:49:36.738Z,1.52
2023-05-04T16:52:05.001Z,2.22
2023-05-04T16:54:32.312Z,2.97
2023-05-04T16:56:59.612Z,2.95
2023-05-04T16:59:26.960Z,1.85
2023-05-04T17:01:59.126Z,2.30
2023-05-04T17:04:27.616Z,1.90
2023-05-04T17:06:57.295Z,1.52
2023-05-04T17:09:27.131Z,1.63
2023-05-04T17:11:54.851Z,1.80
2023-05-04T17:14:22.189Z,1.48
2023-05-04T17:16:49.428Z,3.50
2023-05-04T17:19:19.230Z,1.58
2023-05-04T17:21:46.695Z,1.95
2023-05-04T17:24:17.030Z,2.65
2023-05-04T17:26:46.595Z,4.88
2023-05-04T17:29:13.832Z,1.98
2023-05-04T17:31:41.196Z,2.50
2023-05-04T17:34:12.785Z,3.15
2023-05-04T17:36:40.113Z,2.83
2023-05-04T17:39:11.715Z,3.25
2023-05-04T17:41:39.084Z,2.40
2023-05-04T17:44:06.398Z,4.45
2023-05-04T17:46:34.655Z,2.72
2023-05-04T17:49:01.999Z,3.25
2023-05-04T17:51:32.252Z,2.45
2023-05-04T17:53:59.767Z,2.90
2023-05-04T17:56:27.088Z,2.55
2023-05-04T17:58:54.381Z,4.20
2023-05-04T18:01:24.090Z,3.90
2023-05-04T18:03:53.921Z,4.60
2023-05-04T18:06:21.271Z,6.00
2023-05-04T18:08:50.827Z,4.82
2023-05-04T18:11:18.072Z,6.68
2023-05-04T18:13:45.280Z,9.05
2023-05-04T18:16:12.586Z,6.32
2023-05-04T18:18:40.649Z,5.78
2023-05-04T18:21:07.966Z,4.78
2023-05-04T18:23:35.199Z,8.25
2023-05-04T18:26:02.634Z,8.95
2023-05-04T18:28:30.503Z,7.78
2023-05-04T18:30:57.802Z,13.07
2023-05-04T18:33:25.100Z,11.57
2023-05-04T18:35:56.840Z,9.00
2023-05-04T18:38:26.276Z,6.30
2023-05-04T18:40:53.947Z,6.97
2023-05-04T18:43:21.263Z,11.50
2023-05-04T18:45:50.723Z,7.40
2023-05-04T18:48:18.031Z,8.57
2023-05-04T18:50:57.206Z,5.30
2023-05-04T18:53:26.752Z,5.45
2023-05-04T18:56:09.706Z,6.95
2023-05-04T18:58:38.022Z,5.32
2023-05-04T19:01:09.658Z,4.95
2023-05-04T19:03:37.107Z,4.95
2023-05-04T19:06:04.551Z,3.67
2023-05-04T19:08:34.197Z,4.20
2023-05-04T19:11:03.515Z,3.90
2023-05-04T19:13:33.525Z,4.72
2023-05-04T19:16:03.284Z,4.63
2023-05-04T19:18:30.638Z,5.57
2023-05-04T19:20:57.964Z,4.57
2023-05-04T19:23:25.269Z,4.20
2023-05-04T19:25:57.290Z,7.03
2023-05-04T19:28:24.916Z,5.25
2023-05-04T19:30:53.985Z,6.13
2023-05-04T19:33:30.374Z,4.88
2023-05-04T19:36:04.271Z,3.67
2023-05-04T19:38:34.418Z,4.75
2023-05-04T19:41:04.314Z,4.57
2023-05-04T19:43:34.031Z,5.50
2023-05-04T19:46:06.921Z,5.07
2023-05-04T19:48:34.305Z,7.10
2023-05-04T19:51:04.880Z,6.38
2023-05-04T19:53:34.349Z,4.93
2023-05-04T19:56:01.791Z,5.78
2023-05-04T19:58:30.866Z,5.47
2023-05-04T20:00:58.277Z,7.43
2023-05-04T20:03:27.853Z,6.72
2023-05-04T20:05:57.546Z,4.85
2023-05-04T20:08:26.991Z,4.55
2023-05-04T20:10:54.268Z,4.78
2023-05-04T20:13:25.565Z,5.60
2023-05-04T20:15:53.042Z,7.10
2023-05-04T20:18:20.452Z,4.63
2023-05-04T20:20:47.767Z,6.25
2023-05-04T20:23:15.105Z,5.50
2023-05-04T20:25:42.939Z,8.70
2023-05-04T20:28:10.240Z,6.03
2023-05-04T20:30:37.596Z,6.32
2023-05-04T20:33:07.241Z,6.90
2023-05-04T20:35:37.135Z,7.32
2023-05-04T20:38:04.709Z,9.43
2023-05-04T20:40:32.145Z,7.35
2023-05-04T20:43:01.705Z,6.90
2023-05-04T20:45:30.867Z,7.60
2023-05-04T20:47:58.539Z,8.40
2023-05-04T20:50:26.178Z,8.02
2023-05-04T20:52:53.723Z,9.32
2023-05-04T20:55:21.024Z,6.97
2023-05-04T20:57:48.410Z,8.45
2023-05-04T21:00:18.592Z,8.27
2023-05-04T21:02:51.220Z,9.25
2023-05-04T21:05:19.316Z,9.48
2023-05-04T21:07:46.721Z,9.75
2023-05-04T21:10:15.067Z,10.77
2023-05-04T21:12:42.392Z,10.05
2023-05-04T21:15:10.762Z,9.82
2023-05-04T21:17:38.153Z,10.10
2023-05-04T21:20:06.327Z,9.57
2023-05-04T21:22:33.975Z,10.05
2023-05-04T21:25:01.404Z,10.10
2023-05-04T21:27:28.728Z,9.88
2023-05-04T21:29:56.029Z,13.10
2023-05-04T21:32:23.431Z,13.48
2023-05-04T21:34:52.664Z,13.13
2023-05-04T21:37:19.999Z,14.48
2023-05-04T21:39:47.698Z,12.05
2023-05-04T21:42:14.945Z,11.02
2023-05-04T21:44:44.405Z,10.45
2023-05-04T21:47:11.667Z,10.77
2023-05-04T21:49:41.382Z,11.20
2023-05-04T21:52:08.755Z,9.98
2023-05-04T21:54:36.374Z,9.88
2023-05-04T21:57:08.360Z,11.27
2023-05-04T21:59:35.801Z,10.40
2023-05-04T22:02:03.555Z,11.98
2023-05-04T22:04:33.033Z,10.55
2023-05-04T22:07:00.362Z,11.30
2023-05-04T22:09:28.362Z,10.13
2023-05-04T22:11:55.753Z,9.55
2023-05-04T22:14:23.034Z,10.23
2023-05-04T22:16:50.321Z,10.77
2023-05-04T22:19:17.638Z,10.23
2023-05-04T22:21:44.975Z,9.85
2023-05-04T22:24:12.236Z,10.45
2023-05-04T22:26:41.267Z,9.40
2023-05-04T22:29:11.180Z,9.90
2023-05-04T22:31:40.567Z,11.48
2023-05-04T22:34:07.891Z,12.95
2023-05-04T22:36:35.203Z,11.35
2023-05-04T22:39:05.104Z,11.52
2023-05-04T22:41:34.649Z,12.23
2023-05-04T22:44:04.453Z,11.65
2023-05-04T22:46:31.745Z,11.77
2023-05-04T22:49:01.767Z,13.13
2023-05-04T22:51:29.150Z,11.15
2023-05-04T22:53:56.474Z,11.13
2023-05-04T22:56:26.155Z,10.88
2023-05-04T22:58:55.685Z,11.77
2023-05-04T23:01:23.032Z,13.43
2023-05-04T23:03:51.347Z,11.60
2023-05-04T23:06:18.765Z,10.15
2023-05-04T23:08:46.155Z,11.48
2023-05-04T23:11:13.448Z,11.32
2023-05-04T23:13:40.685Z,12.05
2023-05-04T23:16:08.198Z,10.10
2023-05-04T23:18:35.667Z,10.50
2023-05-04T23:21:02.939Z,11.05
2023-05-04T23:23:32.531Z,11.90
2023-05-04T23:25:59.820Z,10.55
2023-05-04T23:28:27.076Z,10.18
2023-05-04T23:30:55.756Z,12.68
2023-05-04T23:33:23.240Z,10.15
2023-05-04T23:35:55.181Z,10.45
2023-05-04T23:38:25.189Z,10.73
2023-05-04T23:40:52.463Z,10.07
2023-05-04T23:43:21.202Z,10.30
2023-05-04T23:45:50.962Z,10.57
2023-05-04T23:48:18.329Z,11.02
2023-05-04T23:50:57.499Z,11.90
2023-05-04T23:53:27.011Z,10.50
2023-05-04T23:56:00.622Z,10.68
2023-05-04T23:58:30.268Z,10.88
